Back to Top

Language: 

My Weather Underground Personal Weather Station Historical Data with Graphs...

Delerius Weather Station Historical Data
Daily Summary for October 11, 2017 Units:  Metric    English   Both
« Previous Day
Next Day »
Daily Weekly Monthly Yearly Custom
  High: Low: Average:
Temperature: 15.6 °C 10.9 °C 14.2 °C
Dew Point: 12.8 °C 7.4 °C 11.4 °C
Humidity: 91 % 77 % 84 %
Wind Speed: 33.8 km/h 12.9 km/h 22.5 km/h
Wind Gust: 62.8 km/h - -
Wind:- - WSW
Pressure: 1008.4 hPa 1001.2 hPa -
Precipitation: 0.76 mm    
Historical Graphs
 
 
Tabular Data for October 11, 2017
Time Temperature Dew Point Pressure Wind Wind Speed Wind Gust Humidity Rainfall Rate (Hourly) solar Conditions
00:01 13.9 °C 10.1 °C 1007.3 hPa WSW 19.3 km/h 37 km/h 78 % 0 mm 0 W/m2
00:02 14 °C 10.2 °C 1007 hPa WSW 20.9 km/h 37 km/h 78 % 0 mm 0 W/m2
00:07 14 °C 10.2 °C 1007 hPa WSW 19.3 km/h 37 km/h 78 % 0 mm 0 W/m2
00:12 14.1 °C 10.3 °C 1007 hPa WSW 16.1 km/h 29 km/h 78 % 0 mm 0 W/m2
00:17 14.1 °C 10.3 °C 1007 hPa WSW 17.7 km/h 30.6 km/h 78 % 0 mm 0 W/m2
00:22 14.1 °C 10.3 °C 1007 hPa WSW 19.3 km/h 30.6 km/h 78 % 0 mm 0 W/m2
00:27 14.2 °C 10.4 °C 1007 hPa WSW 20.9 km/h 37 km/h 78 % 0 mm 0 W/m2
00:32 14.2 °C 10.4 °C 1007 hPa WSW 19.3 km/h 37 km/h 78 % 0 mm 0 W/m2
00:34 14.2 °C 10.4 °C 1007 hPa WSW 17.7 km/h 32.2 km/h 78 % 0 mm 0 W/m2
00:39 14.3 °C 10.5 °C 1007 hPa WSW 17.7 km/h 29 km/h 78 % 0 mm 0 W/m2
00:44 14.4 °C 10.6 °C 1006.7 hPa WSW 20.9 km/h 37 km/h 78 % 0 mm 0 W/m2
00:49 14.4 °C 10.6 °C 1006.7 hPa WSW 20.9 km/h 37 km/h 78 % 0 mm 0 W/m2
00:54 14.4 °C 10.4 °C 1006.7 hPa WSW 17.7 km/h 38.6 km/h 77 % 0 mm 0 W/m2
00:59 14.3 °C 10.5 °C 1006.7 hPa WSW 19.3 km/h 38.6 km/h 78 % 0 mm 0 W/m2
01:04 14.2 °C 10.6 °C 1006.7 hPa SW 19.3 km/h 33.8 km/h 79 % 0 mm 0 W/m2
01:09 14.1 °C 10.5 °C 1006.7 hPa SW 17.7 km/h 33.8 km/h 79 % 0 mm 0 W/m2
01:14 14.1 °C 10.7 °C 1006.7 hPa SW 20.9 km/h 33.8 km/h 80 % 0 mm 0 W/m2
01:19 14.1 °C 10.9 °C 1006.3 hPa SW 19.3 km/h 33.8 km/h 81 % 0 mm 0 W/m2
01:24 14 °C 11 °C 1006.3 hPa SW 16.1 km/h 29 km/h 82 % 0 mm 0 W/m2
01:29 14 °C 11.2 °C 1006.3 hPa SW 17.7 km/h 35.4 km/h 83 % 0 mm 0 W/m2
01:34 14.1 °C 11.3 °C 1006.3 hPa WSW 19.3 km/h 35.4 km/h 83 % 0 mm 0 W/m2
01:39 14.1 °C 11.3 °C 1006.3 hPa WSW 19.3 km/h 38.6 km/h 83 % 0 mm 0 W/m2
01:45 14.2 °C 11.6 °C 1006.3 hPa WSW 20.9 km/h 38.6 km/h 84 % 0 mm 0 W/m2
01:50 14.1 °C 11.6 °C 1006.3 hPa WSW 20.9 km/h 37 km/h 85 % 0 mm 0 W/m2
01:55 14 °C 11.7 °C 1006.3 hPa SW 20.9 km/h 37 km/h 86 % 0 mm 0 W/m2
02:00 13.9 °C 11.6 °C 1006 hPa SW 22.5 km/h 45.1 km/h 86 % 0 mm 0 W/m2
02:04 14 °C 11.7 °C 1006.3 hPa SW 20.9 km/h 45.1 km/h 86 % 0 mm 0 W/m2
02:10 14 °C 11.7 °C 1006.3 hPa SW 19.3 km/h 32.2 km/h 86 % 0 mm 0 W/m2
02:15 14.1 °C 11.6 °C 1006 hPa SW 20.9 km/h 32.2 km/h 85 % 0 mm 0 W/m2
02:20 14.1 °C 11.6 °C 1006 hPa SW 19.3 km/h 32.2 km/h 85 % 0 mm 0 W/m2
02:25 14.1 °C 11.6 °C 1006 hPa SW 17.7 km/h 35.4 km/h 85 % 0 mm 0 W/m2
02:30 14.1 °C 11.6 °C 1006 hPa SW 17.7 km/h 35.4 km/h 85 % 0 mm 0 W/m2
02:35 14.1 °C 11.6 °C 1006 hPa SW 17.7 km/h 32.2 km/h 85 % 0 mm 0 W/m2
02:40 14.1 °C 11.6 °C 1006 hPa SSW 17.7 km/h 32.2 km/h 85 % 0 mm 0 W/m2
02:45 14.1 °C 11.6 °C 1006 hPa SSW 17.7 km/h 32.2 km/h 85 % 0 mm 0 W/m2
02:50 14.1 °C 11.6 °C 1005.6 hPa SSW 17.7 km/h 32.2 km/h 85 % 0 mm 0 W/m2
02:55 14.1 °C 11.6 °C 1005.6 hPa SSW 17.7 km/h 32.2 km/h 85 % 0 mm 0 W/m2
03:00 14.1 °C 11.6 °C 1005.6 hPa SSW 16.1 km/h 24.1 km/h 85 % 0 mm 0 W/m2
03:05 14.2 °C 11.9 °C 1005.6 hPa SSW 17.7 km/h 33.8 km/h 86 % 0 mm 0 W/m2
03:06 14.2 °C 11.9 °C 1005.3 hPa SSW 17.7 km/h 33.8 km/h 86 % 0 mm 0 W/m2
03:11 14.3 °C 12 °C 1005.3 hPa SW 16.1 km/h 30.6 km/h 86 % 0 mm 0 W/m2
03:16 14.3 °C 12 °C 1005.3 hPa SW 14.5 km/h 20.9 km/h 86 % 0 mm 0 W/m2
03:21 14.4 °C 12.1 °C 1005.3 hPa SSW 14.5 km/h 22.5 km/h 86 % 0 mm 0 W/m2
03:26 14.4 °C 12.1 °C 1005.3 hPa SSW 16.1 km/h 30.6 km/h 86 % 0 mm 0 W/m2
03:31 14.6 °C 12.3 °C 1005 hPa SW 16.1 km/h 30.6 km/h 86 % 0 mm 0 W/m2
03:41 15.1 °C 12.6 °C 1005 hPa SW 19.3 km/h 37 km/h 85 % 0 mm 0 W/m2
03:46 15.3 °C 12.8 °C 1005 hPa SW 22.5 km/h 38.6 km/h 85 % 0 mm 0 W/m2
03:51 15.4 °C 12.7 °C 1005 hPa SW 20.9 km/h 38.6 km/h 84 % 0 mm 0 W/m2
03:56 15.5 °C 12.6 °C 1005 hPa SW 22.5 km/h 51.5 km/h 83 % 0 mm 0 W/m2
04:01 15.6 °C 12.7 °C 1004.6 hPa SW 25.7 km/h 51.5 km/h 83 % 0 mm 0 W/m2
04:12 15.6 °C 12.7 °C 1004.6 hPa SW 20.9 km/h 37 km/h 83 % 0 mm 0 W/m2
04:17 15.6 °C 12.7 °C 1004.6 hPa SW 19.3 km/h 33.8 km/h 83 % 0 mm 0 W/m2
04:23 15.6 °C 12.7 °C 1004.6 hPa SW 19.3 km/h 33.8 km/h 83 % 0 mm 0 W/m2
04:25 15.5 °C 12.6 °C 1004.6 hPa SW 19.3 km/h 33.8 km/h 83 % 0 mm 0 W/m2
04:29 15.5 °C 12.6 °C 1004.6 hPa SW 22.5 km/h 35.4 km/h 83 % 0 mm 0 W/m2
04:35 15.5 °C 12.6 °C 1004.6 hPa SW 22.5 km/h 45.1 km/h 83 % 0 mm 0 W/m2
04:45 15.5 °C 12.6 °C 1004.6 hPa SW 25.7 km/h 45.1 km/h 83 % 0 mm 0 W/m2
04:48 15.5 °C 12.6 °C 1004.6 hPa SW 25.7 km/h 45.1 km/h 83 % 0 mm 0 W/m2
04:53 15.4 °C 12.5 °C 1004.3 hPa WSW 20.9 km/h 41.8 km/h 83 % 0 mm 0 W/m2
04:58 15.4 °C 12.5 °C 1004.3 hPa WSW 19.3 km/h 37 km/h 83 % 0 mm 0 W/m2
05:03 15.4 °C 12.5 °C 1004.3 hPa SW 25.7 km/h 51.5 km/h 83 % 0 mm 0 W/m2
05:08 15.4 °C 12.5 °C 1004.3 hPa SW 29 km/h 51.5 km/h 83 % 0 mm 0 W/m2
05:13 15.4 °C 12.5 °C 1004.3 hPa SW 25.7 km/h 51.5 km/h 83 % 0 mm 0 W/m2
05:18 15.4 °C 12.5 °C 1003.9 hPa SW 22.5 km/h 38.6 km/h 83 % 0 mm 0 W/m2
05:23 15.4 °C 12.5 °C 1004.3 hPa SW 19.3 km/h 37 km/h 83 % 0 mm 0 W/m2
05:28 15.4 °C 12.5 °C 1003.9 hPa SW 20.9 km/h 46.7 km/h 83 % 0 mm 0 W/m2
05:33 15.4 °C 12.5 °C 1003.6 hPa SW 25.7 km/h 46.7 km/h 83 % 0 mm 0 W/m2
05:38 15.4 °C 12.5 °C 1003.9 hPa SW 24.1 km/h 41.8 km/h 83 % 0 mm 0 W/m2
05:43 15.4 °C 12.5 °C 1003.9 hPa SW 24.1 km/h 48.3 km/h 83 % 0 mm 0 W/m2
05:48 15.4 °C 12.5 °C 1003.6 hPa SW 27.4 km/h 48.3 km/h 83 % 0 mm 0 W/m2
05:54 15.4 °C 12.5 °C 1003.6 hPa SW 27.4 km/h 56.3 km/h 83 % 0 mm 0 W/m2
05:59 15.4 °C 12.5 °C 1003.6 hPa SW 27.4 km/h 56.3 km/h 83 % 0 mm 0 W/m2
06:04 15.4 °C 12.5 °C 1003.3 hPa SW 27.4 km/h 48.3 km/h 83 % 0 mm 0 W/m2
06:09 15.4 °C 12.3 °C 1003.6 hPa SW 29 km/h 54.7 km/h 82 % 0 mm 0 W/m2
06:14 15.5 °C 12.4 °C 1003.6 hPa SW 30.6 km/h 54.7 km/h 82 % 0 mm 0 W/m2
06:19 15.5 °C 12.4 °C 1003.6 hPa SW 27.4 km/h 46.7 km/h 82 % 0 mm 0 W/m2
06:24 15.5 °C 12.4 °C 1003.6 hPa SW 24.1 km/h 46.7 km/h 82 % 0 mm 0 W/m2
06:29 15.5 °C 12.4 °C 1003.6 hPa SW 24.1 km/h 43.5 km/h 82 % 0 mm 0 W/m2
06:34 15.5 °C 12.4 °C 1003.6 hPa SW 25.7 km/h 49.9 km/h 82 % 0 mm 0 W/m2
06:39 15.5 °C 12.4 °C 1003.6 hPa SW 25.7 km/h 49.9 km/h 82 % 0 mm 0 W/m2
06:44 15.5 °C 12.3 °C 1003.6 hPa SW 24.1 km/h 49.9 km/h 81 % 0 mm 0 W/m2
06:49 15.5 °C 12.4 °C 1003.6 hPa SW 24.1 km/h 40.2 km/h 82 % 0 mm 0 W/m2
06:54 15.5 °C 12.3 °C 1003.6 hPa SW 27.4 km/h 46.7 km/h 81 % 0 mm 0 W/m2
06:59 15.6 °C 12.3 °C 1003.6 hPa SW 30.6 km/h 48.3 km/h 81 % 0 mm 0 W/m2
07:04 15.6 °C 12.3 °C 1003.6 hPa SW 27.4 km/h 49.9 km/h 81 % 0 mm 0 W/m2
07:09 15.5 °C 12.3 °C 1003.6 hPa SW 22.5 km/h 49.9 km/h 81 % 0 mm 0 W/m2
07:14 15.4 °C 12.2 °C 1003.6 hPa SW 24.1 km/h 41.8 km/h 81 % 0 mm 0 W/m2
07:16 15.4 °C 12.2 °C 1003.6 hPa SW 24.1 km/h 41.8 km/h 81 % 0 mm 0 W/m2
07:20 15.4 °C 12.2 °C 1003.6 hPa SW 24.1 km/h 41.8 km/h 81 % 0 mm 0 W/m2
07:26 15.4 °C 12.2 °C 1003.6 hPa SW 22.5 km/h 41.8 km/h 81 % 0 mm 0 W/m2
07:31 15.4 °C 12.2 °C 1003.6 hPa SW 24.1 km/h 43.5 km/h 81 % 0 mm 0 W/m2
07:36 15.4 °C 12.2 °C 1003.6 hPa SW 27.4 km/h 48.3 km/h 81 % 0 mm 0 W/m2
07:41 15.4 °C 12.2 °C 1003.6 hPa SW 27.4 km/h 48.3 km/h 81 % 0 mm 5 W/m2
07:46 15.3 °C 12.1 °C 1003.6 hPa SW 24.1 km/h 40.2 km/h 81 % 0 mm 9 W/m2
08:01 15.3 °C 12.1 °C 1003.6 hPa SW 24.1 km/h 48.3 km/h 81 % 0 mm 21 W/m2
08:06 15.3 °C 12.1 °C 1003.6 hPa SW 27.4 km/h 48.3 km/h 81 % 0 mm 25 W/m2
08:11 15.3 °C 11.9 °C 1003.6 hPa SW 29 km/h 53.1 km/h 80 % 0 mm 26 W/m2
08:16 15.3 °C 11.9 °C 1003.6 hPa SW 29 km/h 53.1 km/h 80 % 0 mm 30 W/m2
08:21 15.3 °C 11.9 °C 1003.6 hPa SW 25.7 km/h 49.9 km/h 80 % 0 mm 33 W/m2
08:26 15.2 °C 11.8 °C 1003.6 hPa SW 27.4 km/h 48.3 km/h 80 % 0 mm 39 W/m2
08:31 15.2 °C 11.8 °C 1003.3 hPa SW 27.4 km/h 48.3 km/h 80 % 0 mm 42 W/m2
08:36 15.2 °C 11.8 °C 1003.3 hPa SW 25.7 km/h 43.5 km/h 80 % 0 mm 44 W/m2
08:41 15.2 °C 11.9 °C 1003.3 hPa SW 25.7 km/h 45.1 km/h 81 % 0 mm 44 W/m2
08:46 15.2 °C 11.8 °C 1003.6 hPa SW 27.4 km/h 49.9 km/h 80 % 0 mm 51 W/m2
08:51 15.2 °C 11.8 °C 1003.6 hPa SW 32.2 km/h 61.2 km/h 80 % 0 mm 63 W/m2
08:56 15.2 °C 11.8 °C 1003.3 hPa SW 30.6 km/h 61.2 km/h 80 % 0 mm 77 W/m2
09:01 15.2 °C 11.8 °C 1003.3 hPa SW 29 km/h 45.1 km/h 80 % 0 mm 79 W/m2
09:06 15.2 °C 11.8 °C 1003.3 hPa SW 29 km/h 46.7 km/h 80 % 0 mm 84 W/m2
09:11 15.2 °C 11.8 °C 1003.3 hPa SW 29 km/h 51.5 km/h 80 % 0 mm 91 W/m2
09:16 15.2 °C 11.8 °C 1003.3 hPa SW 27.4 km/h 51.5 km/h 80 % 0 mm 105 W/m2
09:21 15.2 °C 11.8 °C 1003.3 hPa SW 27.4 km/h 53.1 km/h 80 % 0 mm 116 W/m2
09:26 15.3 °C 11.7 °C 1003.3 hPa SW 30.6 km/h 53.1 km/h 79 % 0 mm 121 W/m2
09:31 15.3 °C 11.7 °C 1003.3 hPa SW 30.6 km/h 51.5 km/h 79 % 0 mm 107 W/m2
09:36 15.3 °C 11.7 °C 1003.3 hPa SW 30.6 km/h 51.5 km/h 79 % 0 mm 113 W/m2
09:41 15.3 °C 11.7 °C 1003.3 hPa SW 30.6 km/h 62.8 km/h 79 % 0 mm 139 W/m2
09:46 15.4 °C 11.8 °C 1003.3 hPa SW 33.8 km/h 62.8 km/h 79 % 0 mm 141 W/m2
09:51 15.4 °C 11.8 °C 1003.6 hPa SW 32.2 km/h 62.8 km/h 79 % 0 mm 116 W/m2
09:57 15.4 °C 11.6 °C 1003.3 hPa SW 29 km/h 48.3 km/h 78 % 0 mm 105 W/m2
10:02 15.4 °C 11.6 °C 1003.3 hPa SW 30.6 km/h 48.3 km/h 78 % 0 mm 81 W/m2
10:07 15.4 °C 11.6 °C 1003.3 hPa SW 30.6 km/h 48.3 km/h 78 % 0 mm 84 W/m2
10:12 15.3 °C 11.5 °C 1003.6 hPa SW 32.2 km/h 49.9 km/h 78 % 0 mm 109 W/m2
10:17 15.3 °C 11.7 °C 1003.3 hPa SW 32.2 km/h 49.9 km/h 79 % 0 mm 116 W/m2
10:22 15.4 °C 11.6 °C 1003.6 hPa SW 30.6 km/h 48.3 km/h 78 % 0 mm 100 W/m2
10:27 15.4 °C 11.6 °C 1003.6 hPa SW 29 km/h 48.3 km/h 78 % 0 mm 90 W/m2
10:32 15.4 °C 11.8 °C 1003.6 hPa SW 27.4 km/h 49.9 km/h 79 % 0 mm 95 W/m2
10:37 15.3 °C 11.5 °C 1003.6 hPa SW 30.6 km/h 54.7 km/h 78 % 0 mm 104 W/m2
10:42 15.3 °C 11.5 °C 1003.3 hPa SSW 32.2 km/h 54.7 km/h 78 % 0 mm 105 W/m2
10:47 15.4 °C 11.6 °C 1003.3 hPa SW 30.6 km/h 51.5 km/h 78 % 0 mm 100 W/m2
10:52 15.3 °C 11.5 °C 1003.3 hPa SSW 29 km/h 51.5 km/h 78 % 0 mm 104 W/m2
10:57 15.3 °C 11.5 °C 1003.6 hPa SSW 27.4 km/h 46.7 km/h 78 % 0 mm 84 W/m2
11:02 15.3 °C 11.5 °C 1003.6 hPa SSW 27.4 km/h 46.7 km/h 78 % 0 mm 72 W/m2
11:07 15.2 °C 11.4 °C 1003.6 hPa SW 27.4 km/h 45.1 km/h 78 % 0 mm 65 W/m2
11:12 15.2 °C 11.6 °C 1003.3 hPa SSW 29 km/h 45.1 km/h 79 % 0 mm 77 W/m2
11:17 15.2 °C 11.6 °C 1003.3 hPa SSW 27.4 km/h 45.1 km/h 79 % 0 mm 95 W/m2
11:22 15.2 °C 11.6 °C 1003.3 hPa SSW 24.1 km/h 45.1 km/h 79 % 0 mm 81 W/m2
11:27 15.2 °C 11.4 °C 1003.3 hPa SSW 24.1 km/h 41.8 km/h 78 % 0 mm 79 W/m2
11:32 15.2 °C 11.6 °C 1003.3 hPa SSW 24.1 km/h 41.8 km/h 79 % 0 mm 100 W/m2
11:37 15.2 °C 11.6 °C 1002.9 hPa SSW 24.1 km/h 38.6 km/h 79 % 0 mm 105 W/m2
11:38 15.2 °C 11.6 °C 1002.9 hPa SSW 22.5 km/h 38.6 km/h 79 % 0 mm 144 W/m2
11:43 15.3 °C 11.7 °C 1002.9 hPa SSW 24.1 km/h 38.6 km/h 79 % 0 mm 120 W/m2
11:49 15.3 °C 11.7 °C 1002.9 hPa SSW 24.1 km/h 46.7 km/h 79 % 0 mm 139 W/m2
11:54 15.2 °C 11.6 °C 1002.9 hPa SSW 24.1 km/h 46.7 km/h 79 % 0 mm 118 W/m2
12:04 15.1 °C 11.9 °C 1002.9 hPa SSW 24.1 km/h 46.7 km/h 81 % 0 mm 176 W/m2
12:09 15.1 °C 11.9 °C 1002.9 hPa SSW 29 km/h 51.5 km/h 81 % 0 mm 125 W/m2
12:14 14.9 °C 11.8 °C 1002.9 hPa SSW 27.4 km/h 51.5 km/h 82 % 0 mm 134 W/m2
12:19 14.8 °C 11.9 °C 1002.9 hPa SSW 27.4 km/h 43.5 km/h 83 % 0 mm 128 W/m2
12:24 14.7 °C 12 °C 1002.9 hPa SW 25.7 km/h 40.2 km/h 84 % 0 mm 107 W/m2
12:29 14.6 °C 12.1 °C 1002.9 hPa SSW 24.1 km/h 40.2 km/h 85 % 0 mm 86 W/m2
12:32 14.5 °C 12.2 °C 1002.9 hPa SSW 22.5 km/h 40.2 km/h 86 % 0 mm 86 W/m2
12:37 14.4 °C 12.1 °C 1002.6 hPa SW 20.9 km/h 38.6 km/h 86 % 0 mm 65 W/m2
12:42 14.3 °C 12 °C 1002.6 hPa SSW 19.3 km/h 38.6 km/h 86 % 0 mm 70 W/m2
12:47 14.3 °C 12.2 °C 1002.6 hPa SSW 19.3 km/h 38.6 km/h 87 % 0 mm 70 W/m2
12:52 14.3 °C 12 °C 1002.6 hPa SSW 20.9 km/h 38.6 km/h 86 % 0 mm 81 W/m2
12:57 14.3 °C 11.8 °C 1002.6 hPa SSW 25.7 km/h 51.5 km/h 85 % 0 mm 111 W/m2
13:07 14.4 °C 11.9 °C 1002.3 hPa SSW 27.4 km/h 43.5 km/h 85 % 0 mm 132 W/m2
13:17 14.5 °C 12 °C 1002.3 hPa SW 27.4 km/h 46.7 km/h 85 % 0 mm 105 W/m2
13:22 14.5 °C 12 °C 1001.9 hPa SSW 25.7 km/h 46.7 km/h 85 % 0 mm 86 W/m2
13:27 14.5 °C 12 °C 1001.9 hPa SSW 24.1 km/h 43.5 km/h 85 % 0 mm 95 W/m2
13:32 14.5 °C 12 °C 1001.9 hPa SSW 24.1 km/h 43.5 km/h 85 % 0 mm 93 W/m2
13:37 14.5 °C 12 °C 1001.9 hPa SSW 25.7 km/h 40.2 km/h 85 % 0 mm 83 W/m2
13:42 14.5 °C 12.2 °C 1001.9 hPa SSW 27.4 km/h 51.5 km/h 86 % 0 mm 74 W/m2
13:47 14.4 °C 12.1 °C 1001.9 hPa SW 24.1 km/h 51.5 km/h 86 % 0 mm 76 W/m2
13:52 14.4 °C 12.3 °C 1001.6 hPa SSW 20.9 km/h 37 km/h 87 % 0 mm 118 W/m2
13:57 14.4 °C 12.3 °C 1001.6 hPa SSW 20.9 km/h 35.4 km/h 87 % 0 mm 104 W/m2
14:02 14.4 °C 12.3 °C 1001.6 hPa SSW 20.9 km/h 35.4 km/h 87 % 0 mm 60 W/m2
14:07 14.4 °C 12.3 °C 1001.6 hPa SSW 19.3 km/h 43.5 km/h 87 % 0 mm 42 W/m2
14:12 14.4 °C 12.3 °C 1001.6 hPa SSW 19.3 km/h 43.5 km/h 87 % 0 mm 58 W/m2
14:17 14.5 °C 12.3 °C 1001.6 hPa SSW 20.9 km/h 38.6 km/h 87 % 0 mm 56 W/m2
14:23 14.6 °C 12.4 °C 1001.6 hPa SSW 20.9 km/h 40.2 km/h 87 % 0 mm 56 W/m2
14:28 14.7 °C 12.6 °C 1001.6 hPa SSW 22.5 km/h 41.8 km/h 87 % 0 mm 47 W/m2
14:33 14.6 °C 12.4 °C 1001.6 hPa SSW 24.1 km/h 41.8 km/h 87 % 0 mm 39 W/m2
14:38 14.6 °C 12.6 °C 1001.6 hPa SSW 25.7 km/h 45.1 km/h 88 % 0 mm 26 W/m2
14:43 14.4 °C 12.6 °C 1001.6 hPa SW 24.1 km/h 45.1 km/h 89 % 0 mm 32 W/m2
14:48 14.4 °C 12.8 °C 1001.9 hPa SW 20.9 km/h 35.4 km/h 90 % 0 mm 46 W/m2
14:53 14.3 °C 12.7 °C 1001.6 hPa SW 17.7 km/h 33.8 km/h 90 % 0 mm 51 W/m2
14:58 14.3 °C 12.8 °C 1001.9 hPa SW 17.7 km/h 37 km/h 91 % 0 mm 37 W/m2
15:03 14.3 °C 12.8 °C 1001.6 hPa SW 17.7 km/h 37 km/h 91 % 0.25 mm 49 W/m2
15:08 14.3 °C 12.7 °C 1001.9 hPa SW 16.1 km/h 29 km/h 90 % 0.25 mm 42 W/m2
15:13 14.3 °C 12.7 °C 1001.9 hPa SW 16.1 km/h 30.6 km/h 90 % 0.25 mm 77 W/m2
15:18 14.4 °C 12.6 °C 1001.9 hPa SW 17.7 km/h 51.5 km/h 89 % 0.25 mm 97 W/m2
15:23 14.6 °C 12.3 °C 1001.9 hPa WSW 22.5 km/h 51.5 km/h 86 % 0.25 mm 135 W/m2
15:28 14.6 °C 12.3 °C 1001.9 hPa WSW 22.5 km/h 43.5 km/h 86 % 0.25 mm 206 W/m2
15:33 14.7 °C 12.4 °C 1001.6 hPa SW 19.3 km/h 35.4 km/h 86 % 0.25 mm 218 W/m2
15:38 14.7 °C 12.4 °C 1001.6 hPa SW 19.3 km/h 41.8 km/h 86 % 0.25 mm 216 W/m2
15:43 14.8 °C 12.5 °C 1001.6 hPa SW 17.7 km/h 41.8 km/h 86 % 0.25 mm 381 W/m2
15:48 15 °C 12.5 °C 1001.6 hPa SW 19.3 km/h 40.2 km/h 85 % 0.25 mm 445 W/m2
15:53 15.2 °C 12.7 °C 1001.6 hPa SW 22.5 km/h 40.2 km/h 85 % 0.25 mm 469 W/m2
16:03 15.4 °C 12.5 °C 1001.6 hPa SW 20.9 km/h 38.6 km/h 83 % 0 mm 120 W/m2
16:08 15.3 °C 12.4 °C 1001.6 hPa SW 19.3 km/h 37 km/h 83 % 0 mm 113 W/m2
16:13 15.3 °C 12.6 °C 1001.6 hPa SW 16.1 km/h 37 km/h 84 % 0 mm 132 W/m2
16:18 15.1 °C 12.4 °C 1001.6 hPa SW 17.7 km/h 35.4 km/h 84 % 0 mm 77 W/m2
16:23 14.9 °C 12.4 °C 1001.2 hPa WSW 24.1 km/h 40.2 km/h 85 % 0 mm 151 W/m2
16:28 14.7 °C 12.4 °C 1001.6 hPa WSW 27.4 km/h 45.1 km/h 86 % 0 mm 137 W/m2
16:33 14.6 °C 12.4 °C 1001.6 hPa SW 22.5 km/h 45.1 km/h 87 % 0 mm 186 W/m2
16:38 14.4 °C 12.4 °C 1001.6 hPa SW 19.3 km/h 33.8 km/h 88 % 0 mm 97 W/m2
16:43 14.4 °C 12.4 °C 1001.2 hPa SW 19.3 km/h 32.2 km/h 88 % 0 mm 88 W/m2
16:48 14.3 °C 12.3 °C 1001.2 hPa SW 20.9 km/h 38.6 km/h 88 % 0 mm 54 W/m2
16:53 14.3 °C 12.5 °C 1001.2 hPa SW 19.3 km/h 38.6 km/h 89 % 0 mm 77 W/m2
16:58 14.2 °C 12.4 °C 1001.2 hPa SW 19.3 km/h 35.4 km/h 89 % 0 mm 58 W/m2
17:03 14.2 °C 12.4 °C 1001.2 hPa SW 19.3 km/h 35.4 km/h 89 % 0.25 mm 97 W/m2
17:08 14.1 °C 12.3 °C 1001.2 hPa SW 19.3 km/h 32.2 km/h 89 % 0.25 mm 39 W/m2
17:13 14.1 °C 12.5 °C 1001.2 hPa SW 19.3 km/h 32.2 km/h 90 % 0.25 mm 118 W/m2
17:18 14.1 °C 12.5 °C 1001.2 hPa SW 17.7 km/h 32.2 km/h 90 % 0.25 mm 69 W/m2
17:23 14.1 °C 12.7 °C 1001.2 hPa SW 16.1 km/h 29 km/h 91 % 0.25 mm 33 W/m2
17:28 14 °C 12.4 °C 1001.2 hPa SW 14.5 km/h 29 km/h 90 % 0.25 mm 25 W/m2
17:33 14 °C 12.4 °C 1001.2 hPa SW 16.1 km/h 29 km/h 90 % 0.25 mm 19 W/m2
17:38 14 °C 12.6 °C 1001.2 hPa SW 14.5 km/h 32.2 km/h 91 % 0.25 mm 12 W/m2
17:48 14 °C 12.6 °C 1001.2 hPa SW 14.5 km/h 24.1 km/h 91 % 0.25 mm 14 W/m2
17:53 14 °C 12.6 °C 1001.6 hPa SW 16.1 km/h 24.1 km/h 91 % 0.51 mm 5 W/m2
17:58 14.1 °C 12.7 °C 1001.6 hPa WSW 16.1 km/h 24.1 km/h 91 % 0.51 mm 7 W/m2
18:03 13.9 °C 12.4 °C 1001.9 hPa WSW 19.3 km/h 40.2 km/h 91 % 0.25 mm 11 W/m2
18:08 13.8 °C 12.2 °C 1001.9 hPa West 20.9 km/h 40.2 km/h 90 % 0.51 mm 7 W/m2
18:14 13.7 °C 11.9 °C 1001.9 hPa West 17.7 km/h 37 km/h 89 % 0.51 mm 0 W/m2
18:19 13.7 °C 11.9 °C 1001.9 hPa West 14.5 km/h 25.7 km/h 89 % 0.51 mm 5 W/m2
18:24 13.6 °C 11.8 °C 1002.3 hPa West 12.9 km/h 20.9 km/h 89 % 0.51 mm 0 W/m2
18:29 13.5 °C 11.7 °C 1002.3 hPa West 14.5 km/h 29 km/h 89 % 0.51 mm 0 W/m2
18:34 13.3 °C 11.5 °C 1002.3 hPa West 12.9 km/h 29 km/h 89 % 0.51 mm 0 W/m2
18:44 13.1 °C 11.3 °C 1002.6 hPa West 14.5 km/h 29 km/h 89 % 0.51 mm 0 W/m2
18:54 13 °C 11.2 °C 1002.6 hPa West 16.1 km/h 29 km/h 89 % 0.25 mm 0 W/m2
18:59 13.1 °C 11.3 °C 1002.6 hPa West 19.3 km/h 35.4 km/h 89 % 0.25 mm 0 W/m2
19:04 13.2 °C 11.3 °C 1002.9 hPa West 20.9 km/h 38.6 km/h 88 % 0.25 mm 0 W/m2
19:09 13.3 °C 11.3 °C 1003.3 hPa West 22.5 km/h 41.8 km/h 88 % 0 mm 0 W/m2
19:14 12.8 °C 10 °C 1003.6 hPa West 29 km/h 59.5 km/h 83 % 0 mm 0 W/m2
19:19 12.4 °C 9.6 °C 1003.6 hPa West 29 km/h 59.5 km/h 83 % 0 mm 0 W/m2
19:24 12.1 °C 9.3 °C 1003.6 hPa West 24.1 km/h 43.5 km/h 83 % 0 mm 0 W/m2
19:29 11.9 °C 9.3 °C 1003.9 hPa West 22.5 km/h 43.5 km/h 84 % 0 mm 0 W/m2
19:34 11.8 °C 9.3 °C 1003.9 hPa West 19.3 km/h 40.2 km/h 85 % 0 mm 0 W/m2
19:39 11.6 °C 9.3 °C 1003.9 hPa West 19.3 km/h 40.2 km/h 86 % 0 mm 0 W/m2
19:44 11.6 °C 9.5 °C 1003.9 hPa West 17.7 km/h 33.8 km/h 87 % 0 mm 0 W/m2
19:49 11.6 °C 9.5 °C 1003.9 hPa WSW 20.9 km/h 43.5 km/h 87 % 0 mm 0 W/m2
19:54 11.6 °C 9.5 °C 1003.9 hPa West 24.1 km/h 43.5 km/h 87 % 0 mm 0 W/m2
19:59 11.6 °C 9.5 °C 1004.3 hPa West 24.1 km/h 40.2 km/h 87 % 0 mm 0 W/m2
20:04 11.7 °C 9.6 °C 1004.3 hPa West 25.7 km/h 45.1 km/h 87 % 0 mm 0 W/m2
20:09 11.7 °C 9.4 °C 1004.3 hPa West 27.4 km/h 45.1 km/h 86 % 0 mm 0 W/m2
20:14 11.7 °C 9.4 °C 1004.3 hPa West 24.1 km/h 43.5 km/h 86 % 0 mm 0 W/m2
20:19 11.8 °C 9.6 °C 1004.6 hPa West 25.7 km/h 45.1 km/h 86 % 0 mm 0 W/m2
20:24 11.8 °C 9.6 °C 1004.6 hPa West 27.4 km/h 45.1 km/h 86 % 0 mm 0 W/m2
20:29 11.9 °C 9.4 °C 1004.6 hPa West 25.7 km/h 41.8 km/h 85 % 0 mm 0 W/m2
20:34 12 °C 9.6 °C 1005 hPa West 25.7 km/h 41.8 km/h 85 % 0 mm 0 W/m2
20:39 11.9 °C 9.4 °C 1005 hPa West 25.7 km/h 43.5 km/h 85 % 0 mm 0 W/m2
20:44 12 °C 9.6 °C 1004.6 hPa West 25.7 km/h 46.7 km/h 85 % 0 mm 0 W/m2
20:49 12.1 °C 9.7 °C 1005 hPa West 27.4 km/h 51.5 km/h 85 % 0 mm 0 W/m2
20:54 12.1 °C 9.7 °C 1005.3 hPa West 27.4 km/h 51.5 km/h 85 % 0 mm 0 W/m2
21:00 12.1 °C 9.7 °C 1005 hPa West 25.7 km/h 43.5 km/h 85 % 0 mm 0 W/m2
21:05 12.1 °C 9.5 °C 1005 hPa West 25.7 km/h 45.1 km/h 84 % 0 mm 0 W/m2
21:10 12.2 °C 9.6 °C 1005.3 hPa West 29 km/h 45.1 km/h 84 % 0 mm 0 W/m2
21:15 12.3 °C 9.5 °C 1005.3 hPa West 29 km/h 49.9 km/h 83 % 0 mm 0 W/m2
21:20 12.3 °C 9.7 °C 1005.6 hPa West 24.1 km/h 49.9 km/h 84 % 0 mm 0 W/m2
21:25 12.3 °C 9.7 °C 1005.6 hPa West 22.5 km/h 41.8 km/h 84 % 0 mm 0 W/m2
21:30 12.2 °C 9.6 °C 1006 hPa West 25.7 km/h 45.1 km/h 84 % 0 mm 0 W/m2
21:35 12.2 °C 9.6 °C 1006 hPa West 25.7 km/h 45.1 km/h 84 % 0 mm 0 W/m2
21:40 12.1 °C 9.3 °C 1006.3 hPa West 22.5 km/h 40.2 km/h 83 % 0 mm 0 W/m2
21:45 12 °C 9.2 °C 1006.3 hPa West 19.3 km/h 38.6 km/h 83 % 0 mm 0 W/m2
21:49 11.9 °C 8.9 °C 1006.3 hPa West 19.3 km/h 41.8 km/h 82 % 0 mm 0 W/m2
21:54 11.9 °C 9.1 °C 1006.7 hPa West 17.7 km/h 41.8 km/h 83 % 0 mm 0 W/m2
21:59 11.9 °C 9.1 °C 1006.7 hPa West 17.7 km/h 37 km/h 83 % 0 mm 0 W/m2
22:04 11.9 °C 9.1 °C 1006.7 hPa West 17.7 km/h 37 km/h 83 % 0 mm 0 W/m2
22:09 11.8 °C 9.2 °C 1006.7 hPa West 17.7 km/h 35.4 km/h 84 % 0 mm 0 W/m2
22:14 11.8 °C 9.2 °C 1007 hPa West 16.1 km/h 32.2 km/h 84 % 0 mm 0 W/m2
22:19 11.8 °C 9.2 °C 1007 hPa West 17.7 km/h 40.2 km/h 84 % 0 mm 0 W/m2
22:24 11.8 °C 9.2 °C 1007 hPa West 20.9 km/h 40.2 km/h 84 % 0 mm 0 W/m2
22:29 11.8 °C 9.2 °C 1007 hPa West 20.9 km/h 37 km/h 84 % 0 mm 0 W/m2
22:34 11.8 °C 9.2 °C 1007 hPa West 22.5 km/h 40.2 km/h 84 % 0 mm 0 W/m2
22:39 11.8 °C 9.2 °C 1007 hPa West 24.1 km/h 41.8 km/h 84 % 0 mm 0 W/m2
22:44 11.8 °C 9.2 °C 1007 hPa West 24.1 km/h 41.8 km/h 84 % 0 mm 0 W/m2
22:49 11.8 °C 9.2 °C 1007 hPa West 20.9 km/h 38.6 km/h 84 % 0 mm 0 W/m2
22:54 11.7 °C 9.1 °C 1007.3 hPa West 19.3 km/h 33.8 km/h 84 % 0 mm 0 W/m2
22:59 11.6 °C 8.8 °C 1007.3 hPa West 17.7 km/h 33.8 km/h 83 % 0 mm 0 W/m2
23:09 11.4 °C 8.6 °C 1007.7 hPa WNW 20.9 km/h 38.6 km/h 83 % 0 mm 0 W/m2
23:14 11.4 °C 8.4 °C 1007.7 hPa West 17.7 km/h 38.6 km/h 82 % 0 mm 0 W/m2
23:20 11.3 °C 8.3 °C 1008 hPa WNW 16.1 km/h 33.8 km/h 82 % 0 mm 0 W/m2
23:25 11.3 °C 8.3 °C 1008 hPa WNW 19.3 km/h 37 km/h 82 % 0 mm 0 W/m2
23:30 11.3 °C 8.3 °C 1008 hPa West 17.7 km/h 37 km/h 82 % 0 mm 0 W/m2
23:35 11.2 °C 8.2 °C 1008 hPa West 16.1 km/h 30.6 km/h 82 % 0 mm 0 W/m2
23:40 11.1 °C 7.9 °C 1008 hPa West 17.7 km/h 45.1 km/h 81 % 0 mm 0 W/m2
23:45 11.1 °C 7.8 °C 1008.4 hPa West 17.7 km/h 45.1 km/h 80 % 0 mm 0 W/m2
23:50 11 °C 7.7 °C 1008.4 hPa West 17.7 km/h 32.2 km/h 80 % 0 mm 0 W/m2
23:55 10.9 °C 7.4 °C 1008.4 hPa West 17.7 km/h 43.5 km/h 79 % 0 mm 0 W/m2
Delerius-Weather
Compliments of Weather Underground - 2.25 mb

Data updates at regular intervals.